Airport View

Enter AWOS ICAO identifier for current METAR.

ex. KFNL

KTIW 290353Z AUTO 02008KT 10SM CLR 16/10 A3017 RMK AO2 SLP216 T01560100

29 Sep 2020 04:10

Phone: 253-858-6507

Other Area AWOS: KTCM - KGRF - KSEA - KPWT

TAF KTCM 282100Z 2821/3003 01008KT 9999 SKC QNH3028INS BECMG 2912/2913 03004KT 9999 OVC005 QNH3009INS BECMG 2913/2914 VRB04KT 0600 FG OVC002 QNH3008INS BECMG 2916/2917 33006KT 9999 NSW SKC QNH3001INS TX22/2900Z TN10/2913Z